sensor_id;sensor_type;location;lat;lon;timestamp;P1;durP1;ratioP1;P2;durP2;ratioP2
4794;SDS011;2411;47.060;15.064;2024-02-23T00:00:06;0.40;;;0.40;;
4794;SDS011;2411;47.060;15.064;2024-02-23T00:02:34;0.40;;;0.40;;
4794;SDS011;2411;47.060;15.064;2024-02-23T00:05:01;0.50;;;0.50;;
4794;SDS011;2411;47.060;15.064;2024-02-23T00:07:28;1.00;;;0.40;;
4794;SDS011;2411;47.060;15.064;2024-02-23T00:09:55;0.50;;;0.50;;
4794;SDS011;2411;47.060;15.064;2024-02-23T00:12:22;0.40;;;0.40;;
4794;SDS011;2411;47.060;15.064;2024-02-23T00:14:49;0.40;;;0.40;;
4794;SDS011;2411;47.060;15.064;2024-02-23T00:17:17;0.40;;;0.40;;
4794;SDS011;2411;47.060;15.064;2024-02-23T00:19:45;0.40;;;0.40;;
4794;SDS011;2411;47.060;15.064;2024-02-23T00:22:12;0.43;;;0.43;;
4794;SDS011;2411;47.060;15.064;2024-02-23T00:24:40;0.40;;;0.40;;
4794;SDS011;2411;47.060;15.064;2024-02-23T00:27:07;0.40;;;0.40;;
4794;SDS011;2411;47.060;15.064;2024-02-23T00:29:34;0.40;;;0.40;;
4794;SDS011;2411;47.060;15.064;2024-02-23T00:32:02;0.50;;;0.50;;
4794;SDS011;2411;47.060;15.064;2024-02-23T00:34:30;0.40;;;0.40;;
4794;SDS011;2411;47.060;15.064;2024-02-23T00:36:58;0.40;;;0.40;;
4794;SDS011;2411;47.060;15.064;2024-02-23T00:39:25;0.40;;;0.40;;
4794;SDS011;2411;47.060;15.064;2024-02-23T00:41:52;0.33;;;0.33;;
4794;SDS011;2411;47.060;15.064;2024-02-23T00:44:19;0.40;;;0.40;;
4794;SDS011;2411;47.060;15.064;2024-02-23T00:46:46;0.40;;;0.40;;
4794;SDS011;2411;47.060;15.064;2024-02-23T00:49:13;0.40;;;0.40;;
4794;SDS011;2411;47.060;15.064;2024-02-23T00:51:41;0.40;;;0.40;;
4794;SDS011;2411;47.060;15.064;2024-02-23T00:54:08;0.37;;;0.37;;
4794;SDS011;2411;47.060;15.064;2024-02-23T00:56:35;0.30;;;0.30;;
4794;SDS011;2411;47.060;15.064;2024-02-23T00:59:16;0.40;;;0.40;;
4794;SDS011;2411;47.060;15.064;2024-02-23T01:01:43;0.40;;;0.40;;
4794;SDS011;2411;47.060;15.064;2024-02-23T01:04:10;0.40;;;0.40;;
4794;SDS011;2411;47.060;15.064;2024-02-23T01:06:38;0.40;;;0.40;;
4794;SDS011;2411;47.060;15.064;2024-02-23T01:09:05;0.30;;;0.30;;
4794;SDS011;2411;47.060;15.064;2024-02-23T01:11:32;0.43;;;0.40;;
4794;SDS011;2411;47.060;15.064;2024-02-23T01:13:59;0.40;;;0.40;;
4794;SDS011;2411;47.060;15.064;2024-02-23T01:16:26;0.43;;;0.43;;
4794;SDS011;2411;47.060;15.064;2024-02-23T01:18:53;0.40;;;0.40;;
4794;SDS011;2411;47.060;15.064;2024-02-23T01:21:20;0.40;;;0.40;;
4794;SDS011;2411;47.060;15.064;2024-02-23T01:23:47;0.30;;;0.30;;
4794;SDS011;2411;47.060;15.064;2024-02-23T01:26:14;0.40;;;0.40;;
4794;SDS011;2411;47.060;15.064;2024-02-23T01:28:41;0.40;;;0.40;;
4794;SDS011;2411;47.060;15.064;2024-02-23T01:31:09;0.60;;;0.40;;
4794;SDS011;2411;47.060;15.064;2024-02-23T01:33:38;0.40;;;0.40;;
4794;SDS011;2411;47.060;15.064;2024-02-23T01:36:06;0.40;;;0.40;;
4794;SDS011;2411;47.060;15.064;2024-02-23T01:38:34;0.50;;;0.50;;
4794;SDS011;2411;47.060;15.064;2024-02-23T01:41:01;0.40;;;0.40;;
4794;SDS011;2411;47.060;15.064;2024-02-23T01:43:29;0.40;;;0.40;;
4794;SDS011;2411;47.060;15.064;2024-02-23T01:45:56;0.40;;;0.40;;
4794;SDS011;2411;47.060;15.064;2024-02-23T01:48:23;1.60;;;0.50;;
4794;SDS011;2411;47.060;15.064;2024-02-23T01:50:50;0.40;;;0.40;;
4794;SDS011;2411;47.060;15.064;2024-02-23T01:53:17;0.30;;;0.30;;
4794;SDS011;2411;47.060;15.064;2024-02-23T01:55:46;0.40;;;0.40;;
4794;SDS011;2411;47.060;15.064;2024-02-23T01:58:14;0.40;;;0.40;;
4794;SDS011;2411;47.060;15.064;2024-02-23T02:00:41;0.60;;;0.50;;
4794;SDS011;2411;47.060;15.064;2024-02-23T02:03:08;0.40;;;0.40;;
4794;SDS011;2411;47.060;15.064;2024-02-23T02:05:38;0.40;;;0.40;;
4794;SDS011;2411;47.060;15.064;2024-02-23T02:08:06;0.40;;;0.40;;
4794;SDS011;2411;47.060;15.064;2024-02-23T02:10:33;0.40;;;0.40;;
4794;SDS011;2411;47.060;15.064;2024-02-23T02:13:04;0.43;;;0.43;;
4794;SDS011;2411;47.060;15.064;2024-02-23T02:15:32;0.40;;;0.40;;
4794;SDS011;2411;47.060;15.064;2024-02-23T02:17:59;0.40;;;0.40;;
4794;SDS011;2411;47.060;15.064;2024-02-23T02:20:26;0.40;;;0.40;;
4794;SDS011;2411;47.060;15.064;2024-02-23T02:22:58;0.40;;;0.40;;
4794;SDS011;2411;47.060;15.064;2024-02-23T02:25:26;0.40;;;0.40;;
4794;SDS011;2411;47.060;15.064;2024-02-23T02:27:53;0.40;;;0.40;;
4794;SDS011;2411;47.060;15.064;2024-02-23T02:30:20;0.40;;;0.40;;
4794;SDS011;2411;47.060;15.064;2024-02-23T02:32:47;0.40;;;0.40;;
4794;SDS011;2411;47.060;15.064;2024-02-23T02:35:14;0.73;;;0.40;;
4794;SDS011;2411;47.060;15.064;2024-02-23T02:37:41;0.40;;;0.40;;
4794;SDS011;2411;47.060;15.064;2024-02-23T02:40:09;0.40;;;0.40;;
4794;SDS011;2411;47.060;15.064;2024-02-23T02:42:36;0.40;;;0.40;;
4794;SDS011;2411;47.060;15.064;2024-02-23T02:45:03;0.40;;;0.40;;
4794;SDS011;2411;47.060;15.064;2024-02-23T02:47:30;0.40;;;0.40;;
4794;SDS011;2411;47.060;15.064;2024-02-23T02:49:58;1.20;;;0.40;;
4794;SDS011;2411;47.060;15.064;2024-02-23T02:52:25;0.40;;;0.40;;
4794;SDS011;2411;47.060;15.064;2024-02-23T02:54:53;0.40;;;0.40;;
4794;SDS011;2411;47.060;15.064;2024-02-23T02:57:20;0.40;;;0.40;;
4794;SDS011;2411;47.060;15.064;2024-02-23T02:59:47;0.40;;;0.40;;
4794;SDS011;2411;47.060;15.064;2024-02-23T03:02:16;0.40;;;0.40;;
4794;SDS011;2411;47.060;15.064;2024-02-23T03:04:50;0.40;;;0.40;;
4794;SDS011;2411;47.060;15.064;2024-02-23T03:07:17;0.50;;;0.50;;
4794;SDS011;2411;47.060;15.064;2024-02-23T03:09:45;0.30;;;0.30;;
4794;SDS011;2411;47.060;15.064;2024-02-23T03:12:12;0.40;;;0.40;;
4794;SDS011;2411;47.060;15.064;2024-02-23T03:14:39;0.40;;;0.40;;
4794;SDS011;2411;47.060;15.064;2024-02-23T03:17:07;0.30;;;0.30;;
4794;SDS011;2411;47.060;15.064;2024-02-23T03:19:36;0.40;;;0.40;;
4794;SDS011;2411;47.060;15.064;2024-02-23T03:22:05;0.40;;;0.40;;
4794;SDS011;2411;47.060;15.064;2024-02-23T03:24:32;0.30;;;0.30;;
4794;SDS011;2411;47.060;15.064;2024-02-23T03:26:59;0.50;;;0.40;;
4794;SDS011;2411;47.060;15.064;2024-02-23T03:29:26;0.40;;;0.40;;
4794;SDS011;2411;47.060;15.064;2024-02-23T03:31:57;0.40;;;0.40;;
4794;SDS011;2411;47.060;15.064;2024-02-23T03:34:25;0.40;;;0.40;;
4794;SDS011;2411;47.060;15.064;2024-02-23T03:36:52;0.40;;;0.40;;
4794;SDS011;2411;47.060;15.064;2024-02-23T03:39:19;0.40;;;0.40;;
4794;SDS011;2411;47.060;15.064;2024-02-23T03:41:46;0.33;;;0.33;;
4794;SDS011;2411;47.060;15.064;2024-02-23T03:44:13;0.40;;;0.40;;
4794;SDS011;2411;47.060;15.064;2024-02-23T03:46:40;0.40;;;0.30;;
4794;SDS011;2411;47.060;15.064;2024-02-23T03:49:08;0.30;;;0.30;;
4794;SDS011;2411;47.060;15.064;2024-02-23T03:51:35;0.40;;;0.40;;
4794;SDS011;2411;47.060;15.064;2024-02-23T03:54:06;0.40;;;0.40;;
4794;SDS011;2411;47.060;15.064;2024-02-23T03:56:39;0.40;;;0.40;;
4794;SDS011;2411;47.060;15.064;2024-02-23T03:59:10;0.40;;;0.40;;
4794;SDS011;2411;47.060;15.064;2024-02-23T04:01:40;0.40;;;0.40;;
4794;SDS011;2411;47.060;15.064;2024-02-23T04:04:07;0.40;;;0.40;;
4794;SDS011;2411;47.060;15.064;2024-02-23T04:06:34;0.40;;;0.40;;
4794;SDS011;2411;47.060;15.064;2024-02-23T04:09:02;0.40;;;0.40;;
4794;SDS011;2411;47.060;15.064;2024-02-23T04:11:32;0.40;;;0.40;;
4794;SDS011;2411;47.060;15.064;2024-02-23T04:14:00;0.50;;;0.40;;
4794;SDS011;2411;47.060;15.064;2024-02-23T04:16:27;0.30;;;0.30;;
4794;SDS011;2411;47.060;15.064;2024-02-23T04:18:54;0.40;;;0.40;;
4794;SDS011;2411;47.060;15.064;2024-02-23T04:21:23;0.40;;;0.40;;
4794;SDS011;2411;47.060;15.064;2024-02-23T04:23:50;0.40;;;0.40;;
4794;SDS011;2411;47.060;15.064;2024-02-23T04:26:17;0.40;;;0.40;;
4794;SDS011;2411;47.060;15.064;2024-02-23T04:28:45;0.40;;;0.40;;
4794;SDS011;2411;47.060;15.064;2024-02-23T04:31:12;0.40;;;0.40;;
4794;SDS011;2411;47.060;15.064;2024-02-23T04:33:39;0.40;;;0.40;;
4794;SDS011;2411;47.060;15.064;2024-02-23T04:36:06;0.40;;;0.40;;
4794;SDS011;2411;47.060;15.064;2024-02-23T04:38:33;0.40;;;0.40;;
4794;SDS011;2411;47.060;15.064;2024-02-23T04:41:04;0.40;;;0.40;;
4794;SDS011;2411;47.060;15.064;2024-02-23T04:43:34;0.40;;;0.40;;
4794;SDS011;2411;47.060;15.064;2024-02-23T04:46:01;0.40;;;0.40;;
4794;SDS011;2411;47.060;15.064;2024-02-23T04:48:28;0.40;;;0.40;;
4794;SDS011;2411;47.060;15.064;2024-02-23T04:50:57;0.40;;;0.40;;
4794;SDS011;2411;47.060;15.064;2024-02-23T04:53:24;0.40;;;0.40;;
4794;SDS011;2411;47.060;15.064;2024-02-23T04:55:51;0.47;;;0.47;;
4794;SDS011;2411;47.060;15.064;2024-02-23T04:58:19;0.47;;;0.47;;
4794;SDS011;2411;47.060;15.064;2024-02-23T05:00:47;0.50;;;0.50;;
4794;SDS011;2411;47.060;15.064;2024-02-23T05:03:14;0.50;;;0.50;;
4794;SDS011;2411;47.060;15.064;2024-02-23T05:05:42;0.50;;;0.50;;
4794;SDS011;2411;47.060;15.064;2024-02-23T05:08:09;0.40;;;0.40;;
4794;SDS011;2411;47.060;15.064;2024-02-23T05:10:37;0.50;;;0.50;;
4794;SDS011;2411;47.060;15.064;2024-02-23T05:13:04;0.60;;;0.50;;
4794;SDS011;2411;47.060;15.064;2024-02-23T05:15:31;0.40;;;0.40;;
4794;SDS011;2411;47.060;15.064;2024-02-23T05:17:58;0.67;;;0.67;;
4794;SDS011;2411;47.060;15.064;2024-02-23T05:20:25;0.80;;;0.80;;
4794;SDS011;2411;47.060;15.064;2024-02-23T05:22:52;0.60;;;0.60;;
4794;SDS011;2411;47.060;15.064;2024-02-23T05:25:20;0.43;;;0.43;;
4794;SDS011;2411;47.060;15.064;2024-02-23T05:27:47;0.40;;;0.40;;
4794;SDS011;2411;47.060;15.064;2024-02-23T05:30:14;0.80;;;0.60;;
4794;SDS011;2411;47.060;15.064;2024-02-23T05:32:41;0.40;;;0.40;;
4794;SDS011;2411;47.060;15.064;2024-02-23T05:35:09;1.03;;;0.50;;
4794;SDS011;2411;47.060;15.064;2024-02-23T05:37:36;0.40;;;0.40;;
4794;SDS011;2411;47.060;15.064;2024-02-23T05:40:06;0.50;;;0.50;;
4794;SDS011;2411;47.060;15.064;2024-02-23T05:42:36;0.50;;;0.50;;
4794;SDS011;2411;47.060;15.064;2024-02-23T05:45:06;0.53;;;0.53;;
4794;SDS011;2411;47.060;15.064;2024-02-23T05:47:38;0.50;;;0.50;;
4794;SDS011;2411;47.060;15.064;2024-02-23T05:50:09;0.67;;;0.53;;
4794;SDS011;2411;47.060;15.064;2024-02-23T05:52:36;0.50;;;0.50;;
4794;SDS011;2411;47.060;15.064;2024-02-23T05:55:03;0.80;;;0.40;;
4794;SDS011;2411;47.060;15.064;2024-02-23T05:57:31;0.40;;;0.40;;
4794;SDS011;2411;47.060;15.064;2024-02-23T05:59:58;0.40;;;0.40;;
4794;SDS011;2411;47.060;15.064;2024-02-23T06:02:25;0.50;;;0.50;;
4794;SDS011;2411;47.060;15.064;2024-02-23T06:04:52;0.63;;;0.50;;
4794;SDS011;2411;47.060;15.064;2024-02-23T06:07:19;0.60;;;0.60;;
4794;SDS011;2411;47.060;15.064;2024-02-23T06:09:53;0.63;;;0.50;;
4794;SDS011;2411;47.060;15.064;2024-02-23T06:12:20;0.50;;;0.50;;
4794;SDS011;2411;47.060;15.064;2024-02-23T06:14:48;0.80;;;0.60;;
4794;SDS011;2411;47.060;15.064;2024-02-23T06:17:15;0.73;;;0.53;;
4794;SDS011;2411;47.060;15.064;2024-02-23T06:19:42;0.40;;;0.40;;
4794;SDS011;2411;47.060;15.064;2024-02-23T06:22:09;0.40;;;0.40;;
4794;SDS011;2411;47.060;15.064;2024-02-23T06:24:37;0.60;;;0.47;;
4794;SDS011;2411;47.060;15.064;2024-02-23T06:27:04;0.40;;;0.40;;
4794;SDS011;2411;47.060;15.064;2024-02-23T06:29:31;0.50;;;0.50;;
4794;SDS011;2411;47.060;15.064;2024-02-23T06:31:58;0.50;;;0.50;;
4794;SDS011;2411;47.060;15.064;2024-02-23T06:34:28;0.60;;;0.60;;
4794;SDS011;2411;47.060;15.064;2024-02-23T06:36:55;0.60;;;0.60;;
4794;SDS011;2411;47.060;15.064;2024-02-23T06:39:22;0.50;;;0.50;;
4794;SDS011;2411;47.060;15.064;2024-02-23T06:41:49;0.60;;;0.60;;
4794;SDS011;2411;47.060;15.064;2024-02-23T06:44:16;1.80;;;0.50;;
4794;SDS011;2411;47.060;15.064;2024-02-23T06:46:43;0.40;;;0.40;;
4794;SDS011;2411;47.060;15.064;2024-02-23T06:49:11;0.53;;;0.53;;
4794;SDS011;2411;47.060;15.064;2024-02-23T06:51:38;0.73;;;0.73;;
4794;SDS011;2411;47.060;15.064;2024-02-23T06:54:07;0.77;;;0.77;;
4794;SDS011;2411;47.060;15.064;2024-02-23T06:56:34;0.70;;;0.63;;
4794;SDS011;2411;47.060;15.064;2024-02-23T06:59:02;0.60;;;0.60;;
4794;SDS011;2411;47.060;15.064;2024-02-23T07:01:30;1.13;;;0.73;;
4794;SDS011;2411;47.060;15.064;2024-02-23T07:03:57;2.83;;;0.57;;
4794;SDS011;2411;47.060;15.064;2024-02-23T07:06:25;0.60;;;0.50;;
4794;SDS011;2411;47.060;15.064;2024-02-23T07:08:55;1.10;;;0.60;;
4794;SDS011;2411;47.060;15.064;2024-02-23T07:11:22;0.97;;;0.80;;
4794;SDS011;2411;47.060;15.064;2024-02-23T07:13:49;1.70;;;0.80;;
4794;SDS011;2411;47.060;15.064;2024-02-23T07:16:17;1.70;;;1.10;;
4794;SDS011;2411;47.060;15.064;2024-02-23T07:18:44;0.90;;;0.90;;
4794;SDS011;2411;47.060;15.064;2024-02-23T07:21:11;0.70;;;0.70;;
4794;SDS011;2411;47.060;15.064;2024-02-23T07:23:38;1.00;;;0.80;;
4794;SDS011;2411;47.060;15.064;2024-02-23T07:26:06;2.33;;;1.13;;
4794;SDS011;2411;47.060;15.064;2024-02-23T07:28:33;0.70;;;0.70;;
4794;SDS011;2411;47.060;15.064;2024-02-23T07:31:00;1.17;;;1.07;;
4794;SDS011;2411;47.060;15.064;2024-02-23T07:33:27;3.07;;;1.20;;
4794;SDS011;2411;47.060;15.064;2024-02-23T07:35:55;1.53;;;1.07;;
4794;SDS011;2411;47.060;15.064;2024-02-23T07:38:22;1.57;;;0.90;;
4794;SDS011;2411;47.060;15.064;2024-02-23T07:40:49;3.27;;;0.90;;
4794;SDS011;2411;47.060;15.064;2024-02-23T07:43:16;2.63;;;1.03;;
4794;SDS011;2411;47.060;15.064;2024-02-23T07:45:43;4.40;;;1.10;;
4794;SDS011;2411;47.060;15.064;2024-02-23T07:48:11;1.37;;;1.20;;
4794;SDS011;2411;47.060;15.064;2024-02-23T07:50:38;7.93;;;1.70;;
4794;SDS011;2411;47.060;15.064;2024-02-23T07:53:05;1.60;;;1.50;;
4794;SDS011;2411;47.060;15.064;2024-02-23T07:55:32;1.13;;;1.10;;
4794;SDS011;2411;47.060;15.064;2024-02-23T07:57:59;2.67;;;1.20;;
4794;SDS011;2411;47.060;15.064;2024-02-23T08:00:28;2.20;;;1.10;;
4794;SDS011;2411;47.060;15.064;2024-02-23T08:02:55;2.40;;;1.10;;
4794;SDS011;2411;47.060;15.064;2024-02-23T08:05:26;2.97;;;1.67;;
4794;SDS011;2411;47.060;15.064;2024-02-23T08:07:54;4.00;;;1.33;;
4794;SDS011;2411;47.060;15.064;2024-02-23T08:10:24;1.50;;;1.40;;
4794;SDS011;2411;47.060;15.064;2024-02-23T08:12:52;5.77;;;1.40;;
4794;SDS011;2411;47.060;15.064;2024-02-23T08:15:19;1.60;;;1.50;;
4794;SDS011;2411;47.060;15.064;2024-02-23T08:17:46;5.53;;;1.33;;
4794;SDS011;2411;47.060;15.064;2024-02-23T08:20:13;3.27;;;1.20;;
4794;SDS011;2411;47.060;15.064;2024-02-23T08:22:40;6.17;;;1.50;;
4794;SDS011;2411;47.060;15.064;2024-02-23T08:25:07;1.43;;;1.37;;
4794;SDS011;2411;47.060;15.064;2024-02-23T08:27:38;1.60;;;1.50;;
4794;SDS011;2411;47.060;15.064;2024-02-23T08:30:07;1.80;;;1.20;;
4794;SDS011;2411;47.060;15.064;2024-02-23T08:32:34;1.43;;;1.30;;
4794;SDS011;2411;47.060;15.064;2024-02-23T08:35:02;1.53;;;1.43;;
4794;SDS011;2411;47.060;15.064;2024-02-23T08:37:29;2.13;;;1.30;;
4794;SDS011;2411;47.060;15.064;2024-02-23T08:39:56;1.63;;;1.10;;
4794;SDS011;2411;47.060;15.064;2024-02-23T08:42:24;5.23;;;1.30;;
4794;SDS011;2411;47.060;15.064;2024-02-23T08:44:51;1.83;;;1.73;;
4794;SDS011;2411;47.060;15.064;2024-02-23T08:47:21;1.60;;;1.50;;
4794;SDS011;2411;47.060;15.064;2024-02-23T08:49:48;11.03;;;1.80;;
4794;SDS011;2411;47.060;15.064;2024-02-23T08:52:15;7.57;;;2.33;;
4794;SDS011;2411;47.060;15.064;2024-02-23T08:54:42;1.43;;;1.33;;
4794;SDS011;2411;47.060;15.064;2024-02-23T08:57:09;2.80;;;1.20;;
4794;SDS011;2411;47.060;15.064;2024-02-23T08:59:36;1.00;;;0.90;;
4794;SDS011;2411;47.060;15.064;2024-02-23T09:02:03;8.30;;;1.20;;
4794;SDS011;2411;47.060;15.064;2024-02-23T09:04:30;5.57;;;1.77;;
4794;SDS011;2411;47.060;15.064;2024-02-23T09:06:58;7.67;;;1.63;;
4794;SDS011;2411;47.060;15.064;2024-02-23T09:09:25;3.00;;;1.70;;
4794;SDS011;2411;47.060;15.064;2024-02-23T09:11:52;2.80;;;1.73;;
4794;SDS011;2411;47.060;15.064;2024-02-23T09:14:19;3.10;;;2.50;;
4794;SDS011;2411;47.060;15.064;2024-02-23T09:16:46;2.63;;;2.43;;
4794;SDS011;2411;47.060;15.064;2024-02-23T09:19:17;2.70;;;2.50;;
4794;SDS011;2411;47.060;15.064;2024-02-23T09:21:45;2.10;;;2.00;;
4794;SDS011;2411;47.060;15.064;2024-02-23T09:24:12;5.13;;;2.03;;
4794;SDS011;2411;47.060;15.064;2024-02-23T09:26:39;3.40;;;1.70;;
4794;SDS011;2411;47.060;15.064;2024-02-23T09:29:06;8.70;;;1.77;;
4794;SDS011;2411;47.060;15.064;2024-02-23T09:31:34;2.20;;;1.60;;
4794;SDS011;2411;47.060;15.064;2024-02-23T09:34:01;7.37;;;2.20;;
4794;SDS011;2411;47.060;15.064;2024-02-23T09:36:28;1.57;;;1.40;;
4794;SDS011;2411;47.060;15.064;2024-02-23T09:38:56;5.30;;;1.90;;
4794;SDS011;2411;47.060;15.064;2024-02-23T09:41:23;7.50;;;1.30;;
4794;SDS011;2411;47.060;15.064;2024-02-23T09:43:51;7.00;;;2.03;;
4794;SDS011;2411;47.060;15.064;2024-02-23T09:46:19;2.20;;;1.60;;
4794;SDS011;2411;47.060;15.064;2024-02-23T09:48:47;2.10;;;1.20;;
4794;SDS011;2411;47.060;15.064;2024-02-23T09:51:15;2.00;;;1.90;;
4794;SDS011;2411;47.060;15.064;2024-02-23T09:53:42;1.80;;;1.70;;
4794;SDS011;2411;47.060;15.064;2024-02-23T09:56:10;1.40;;;1.30;;
4794;SDS011;2411;47.060;15.064;2024-02-23T09:58:37;2.07;;;1.47;;
4794;SDS011;2411;47.060;15.064;2024-02-23T10:01:08;4.90;;;2.17;;
4794;SDS011;2411;47.060;15.064;2024-02-23T10:03:38;3.60;;;1.90;;
4794;SDS011;2411;47.060;15.064;2024-02-23T10:06:06;4.93;;;2.40;;
4794;SDS011;2411;47.060;15.064;2024-02-23T10:08:33;7.40;;;2.43;;
4794;SDS011;2411;47.060;15.064;2024-02-23T10:11:01;2.50;;;2.30;;
4794;SDS011;2411;47.060;15.064;2024-02-23T10:13:29;2.47;;;2.20;;
4794;SDS011;2411;47.060;15.064;2024-02-23T10:15:56;3.03;;;2.30;;
4794;SDS011;2411;47.060;15.064;2024-02-23T10:18:40;2.63;;;2.17;;
4794;SDS011;2411;47.060;15.064;2024-02-23T10:21:07;5.30;;;2.40;;
4794;SDS011;2411;47.060;15.064;2024-02-23T10:23:34;2.43;;;2.23;;
4794;SDS011;2411;47.060;15.064;2024-02-23T10:26:07;1.83;;;1.80;;
4794;SDS011;2411;47.060;15.064;2024-02-23T10:28:35;2.30;;;2.10;;
4794;SDS011;2411;47.060;15.064;2024-02-23T10:31:05;2.10;;;1.90;;
4794;SDS011;2411;47.060;15.064;2024-02-23T10:33:36;2.50;;;1.70;;
4794;SDS011;2411;47.060;15.064;2024-02-23T10:36:06;2.47;;;1.57;;
4794;SDS011;2411;47.060;15.064;2024-02-23T10:38:37;2.53;;;2.33;;
4794;SDS011;2411;47.060;15.064;2024-02-23T10:41:08;1.70;;;1.60;;
4794;SDS011;2411;47.060;15.064;2024-02-23T10:43:47;1.90;;;1.80;;
4794;SDS011;2411;47.060;15.064;2024-02-23T10:46:15;1.53;;;1.43;;
4794;SDS011;2411;47.060;15.064;2024-02-23T10:48:43;1.87;;;1.77;;
4794;SDS011;2411;47.060;15.064;2024-02-23T10:51:14;1.90;;;1.80;;
4794;SDS011;2411;47.060;15.064;2024-02-23T10:53:46;1.70;;;1.60;;
4794;SDS011;2411;47.060;15.064;2024-02-23T10:56:16;1.53;;;1.43;;
4794;SDS011;2411;47.060;15.064;2024-02-23T10:58:43;1.50;;;1.40;;
4794;SDS011;2411;47.060;15.064;2024-02-23T11:01:10;1.60;;;1.50;;
4794;SDS011;2411;47.060;15.064;2024-02-23T11:03:41;1.20;;;1.20;;
4794;SDS011;2411;47.060;15.064;2024-02-23T11:06:11;1.00;;;1.00;;
4794;SDS011;2411;47.060;15.064;2024-02-23T11:08:38;1.30;;;1.30;;
4794;SDS011;2411;47.060;15.064;2024-02-23T11:11:09;1.20;;;1.10;;
4794;SDS011;2411;47.060;15.064;2024-02-23T11:13:38;1.50;;;1.40;;
4794;SDS011;2411;47.060;15.064;2024-02-23T11:16:07;1.70;;;1.60;;
4794;SDS011;2411;47.060;15.064;2024-02-23T11:18:40;1.70;;;1.13;;
4794;SDS011;2411;47.060;15.064;2024-02-23T11:21:11;1.40;;;1.30;;
4794;SDS011;2411;47.060;15.064;2024-02-23T11:23:42;1.20;;;1.10;;
4794;SDS011;2411;47.060;15.064;2024-02-23T11:26:10;1.40;;;1.30;;
4794;SDS011;2411;47.060;15.064;2024-02-23T11:28:42;1.57;;;1.47;;
4794;SDS011;2411;47.060;15.064;2024-02-23T11:31:18;7.13;;;2.10;;
4794;SDS011;2411;47.060;15.064;2024-02-23T11:33:50;2.30;;;1.60;;
4794;SDS011;2411;47.060;15.064;2024-02-23T11:36:42;2.73;;;2.50;;
4794;SDS011;2411;47.060;15.064;2024-02-23T11:39:09;1.73;;;1.63;;
4794;SDS011;2411;47.060;15.064;2024-02-23T11:41:39;2.10;;;1.80;;
4794;SDS011;2411;47.060;15.064;2024-02-23T11:44:07;1.20;;;1.20;;
4794;SDS011;2411;47.060;15.064;2024-02-23T11:46:35;1.50;;;1.40;;
4794;SDS011;2411;47.060;15.064;2024-02-23T11:49:02;2.30;;;1.63;;
4794;SDS011;2411;47.060;15.064;2024-02-23T11:51:30;3.30;;;1.93;;
4794;SDS011;2411;47.060;15.064;2024-02-23T11:53:57;1.90;;;1.80;;
4794;SDS011;2411;47.060;15.064;2024-02-23T11:56:26;2.60;;;2.40;;
4794;SDS011;2411;47.060;15.064;2024-02-23T11:58:55;2.13;;;2.03;;
4794;SDS011;2411;47.060;15.064;2024-02-23T12:01:22;2.57;;;2.20;;
4794;SDS011;2411;47.060;15.064;2024-02-23T12:03:49;3.03;;;1.97;;
4794;SDS011;2411;47.060;15.064;2024-02-23T12:06:17;1.80;;;1.70;;
4794;SDS011;2411;47.060;15.064;2024-02-23T12:08:44;2.60;;;1.30;;
4794;SDS011;2411;47.060;15.064;2024-02-23T12:11:13;2.27;;;2.00;;
4794;SDS011;2411;47.060;15.064;2024-02-23T12:13:41;2.13;;;1.93;;
4794;SDS011;2411;47.060;15.064;2024-02-23T12:16:08;3.80;;;1.87;;
4794;SDS011;2411;47.060;15.064;2024-02-23T12:18:36;1.80;;;1.70;;
4794;SDS011;2411;47.060;15.064;2024-02-23T12:21:07;2.30;;;1.60;;
4794;SDS011;2411;47.060;15.064;2024-02-23T12:23:42;2.37;;;2.27;;
4794;SDS011;2411;47.060;15.064;2024-02-23T12:26:12;2.27;;;2.17;;
4794;SDS011;2411;47.060;15.064;2024-02-23T12:28:40;3.30;;;2.10;;
4794;SDS011;2411;47.060;15.064;2024-02-23T12:31:08;2.30;;;2.10;;
4794;SDS011;2411;47.060;15.064;2024-02-23T12:33:36;2.17;;;2.07;;
4794;SDS011;2411;47.060;15.064;2024-02-23T12:36:07;2.73;;;2.50;;
4794;SDS011;2411;47.060;15.064;2024-02-23T12:38:35;2.00;;;1.90;;
4794;SDS011;2411;47.060;15.064;2024-02-23T12:41:04;2.40;;;2.20;;
4794;SDS011;2411;47.060;15.064;2024-02-23T12:43:31;1.97;;;1.87;;
4794;SDS011;2411;47.060;15.064;2024-02-23T12:45:59;2.23;;;2.13;;
4794;SDS011;2411;47.060;15.064;2024-02-23T12:48:28;2.77;;;2.57;;
4794;SDS011;2411;47.060;15.064;2024-02-23T12:50:55;2.20;;;2.10;;
4794;SDS011;2411;47.060;15.064;2024-02-23T12:56:06;3.47;;;1.90;;
4794;SDS011;2411;47.060;15.064;2024-02-23T12:58:38;2.10;;;2.00;;
4794;SDS011;2411;47.060;15.064;2024-02-23T13:01:07;2.50;;;2.30;;
4794;SDS011;2411;47.060;15.064;2024-02-23T13:03:35;2.67;;;2.27;;
4794;SDS011;2411;47.060;15.064;2024-02-23T13:06:04;7.50;;;3.30;;
4794;SDS011;2411;47.060;15.064;2024-02-23T13:08:32;3.40;;;2.27;;
4794;SDS011;2411;47.060;15.064;2024-02-23T13:11:01;2.17;;;1.97;;
4794;SDS011;2411;47.060;15.064;2024-02-23T13:13:28;2.30;;;2.20;;
4794;SDS011;2411;47.060;15.064;2024-02-23T13:15:55;2.80;;;2.53;;
4794;SDS011;2411;47.060;15.064;2024-02-23T13:18:23;2.77;;;2.57;;
4794;SDS011;2411;47.060;15.064;2024-02-23T13:20:51;4.63;;;2.97;;
4794;SDS011;2411;47.060;15.064;2024-02-23T13:23:18;3.00;;;2.80;;
4794;SDS011;2411;47.060;15.064;2024-02-23T13:25:45;4.90;;;4.40;;
4794;SDS011;2411;47.060;15.064;2024-02-23T13:28:12;2.67;;;2.47;;
4794;SDS011;2411;47.060;15.064;2024-02-23T13:30:39;2.43;;;2.23;;
4794;SDS011;2411;47.060;15.064;2024-02-23T13:33:07;5.20;;;3.87;;
4794;SDS011;2411;47.060;15.064;2024-02-23T13:35:37;4.10;;;3.80;;
4794;SDS011;2411;47.060;15.064;2024-02-23T13:38:06;5.77;;;3.97;;
4794;SDS011;2411;47.060;15.064;2024-02-23T13:40:33;4.63;;;4.33;;
4794;SDS011;2411;47.060;15.064;2024-02-23T13:43:00;5.80;;;4.47;;
4794;SDS011;2411;47.060;15.064;2024-02-23T13:45:28;3.70;;;3.40;;
4794;SDS011;2411;47.060;15.064;2024-02-23T13:47:55;4.47;;;3.40;;
4794;SDS011;2411;47.060;15.064;2024-02-23T13:50:27;2.93;;;2.73;;
4794;SDS011;2411;47.060;15.064;2024-02-23T13:52:54;4.07;;;2.77;;
4794;SDS011;2411;47.060;15.064;2024-02-23T13:55:21;3.70;;;2.93;;
4794;SDS011;2411;47.060;15.064;2024-02-23T13:57:49;3.90;;;3.60;;
4794;SDS011;2411;47.060;15.064;2024-02-23T14:00:17;2.90;;;2.70;;
4794;SDS011;2411;47.060;15.064;2024-02-23T14:02:46;3.20;;;3.00;;
4794;SDS011;2411;47.060;15.064;2024-02-23T14:05:14;4.20;;;2.87;;
4794;SDS011;2411;47.060;15.064;2024-02-23T14:07:42;3.37;;;3.13;;
4794;SDS011;2411;47.060;15.064;2024-02-23T14:10:10;3.90;;;3.60;;
4794;SDS011;2411;47.060;15.064;2024-02-23T14:12:37;3.83;;;3.57;;
4794;SDS011;2411;47.060;15.064;2024-02-23T14:15:05;3.53;;;3.23;;
4794;SDS011;2411;47.060;15.064;2024-02-23T14:17:32;3.80;;;3.50;;
4794;SDS011;2411;47.060;15.064;2024-02-23T14:20:01;4.00;;;3.70;;
4794;SDS011;2411;47.060;15.064;2024-02-23T14:22:30;3.53;;;3.33;;
4794;SDS011;2411;47.060;15.064;2024-02-23T14:24:58;4.30;;;3.90;;
4794;SDS011;2411;47.060;15.064;2024-02-23T14:27:25;4.67;;;3.70;;
4794;SDS011;2411;47.060;15.064;2024-02-23T14:29:57;3.53;;;3.27;;
4794;SDS011;2411;47.060;15.064;2024-02-23T14:32:25;3.10;;;2.90;;
4794;SDS011;2411;47.060;15.064;2024-02-23T14:34:52;4.67;;;4.20;;
4794;SDS011;2411;47.060;15.064;2024-02-23T14:37:19;3.80;;;3.43;;
4794;SDS011;2411;47.060;15.064;2024-02-23T14:39:46;3.47;;;3.23;;
4794;SDS011;2411;47.060;15.064;2024-02-23T14:42:14;3.40;;;3.10;;
4794;SDS011;2411;47.060;15.064;2024-02-23T14:44:41;5.37;;;3.20;;
4794;SDS011;2411;47.060;15.064;2024-02-23T14:47:08;3.27;;;3.07;;
4794;SDS011;2411;47.060;15.064;2024-02-23T14:49:35;3.30;;;3.10;;
4794;SDS011;2411;47.060;15.064;2024-02-23T14:52:02;3.70;;;3.40;;
4794;SDS011;2411;47.060;15.064;2024-02-23T14:54:30;3.77;;;3.37;;
4794;SDS011;2411;47.060;15.064;2024-02-23T14:56:59;6.23;;;3.50;;
4794;SDS011;2411;47.060;15.064;2024-02-23T14:59:26;7.57;;;3.67;;
4794;SDS011;2411;47.060;15.064;2024-02-23T15:01:54;3.67;;;3.37;;
4794;SDS011;2411;47.060;15.064;2024-02-23T15:04:21;3.43;;;3.23;;
4794;SDS011;2411;47.060;15.064;2024-02-23T15:06:48;4.10;;;3.80;;